Time;durP1;ratioP1;P1;durP2;ratioP2;P2;SDS_P1;SDS_P2;PMS_P1;PMS_P2;Temp;Humidity;BMP_temperature;BMP_pressure;BME280_temperature;BME280_humidity;BME280_pressure;Samples;Min_cycle;Max_cycle;Signal;HPM_P1;HPM_P2
2022/06/16 00:02:05;;;;;;;2.60;2.40;;;24.10;82.00;;;;;;5060706;28;21258;-79
2022/06/16 00:04:35;;;;;;;2.70;2.50;;;24.10;79.40;;;;;;5063014;28;20495;-79
2022/06/16 00:07:04;;;;;;;2.30;2.20;;;24.10;79.60;;;;;;5067508;28;20470;-79
2022/06/16 00:09:32;;;;;;;2.20;2.10;;;24.00;81.00;;;;;;5070122;28;20516;-79
2022/06/16 00:12:00;;;;;;;2.63;2.40;;;24.00;82.10;;;;;;5059179;28;20453;-80
2022/06/16 00:14:30;;;;;;;2.80;2.23;;;24.00;79.60;;;;;;5063417;28;20499;-80
2022/06/16 00:16:58;;;;;;;3.80;2.47;;;24.00;80.50;;;;;;5067184;28;20443;-80
2022/06/16 00:19:27;;;;;;;2.03;1.93;;;24.00;80.60;;;;;;5061587;28;20455;-79
2022/06/16 00:21:55;;;;;;;1.83;1.67;;;24.00;81.10;;;;;;5066371;28;20450;-79
2022/06/16 00:24:26;;;;;;;5.20;2.20;;;23.90;79.00;;;;;;5061937;28;20460;-79
2022/06/16 00:26:56;;;;;;;2.70;2.50;;;23.90;77.70;;;;;;5064909;28;20544;-79
2022/06/16 00:29:25;;;;;;;2.47;2.27;;;23.80;75.40;;;;;;5060450;28;20450;-79
2022/06/16 00:31:54;;;;;;;2.77;2.57;;;23.80;75.60;;;;;;5066997;28;20565;-79
2022/06/16 00:34:23;;;;;;;3.33;3.03;;;23.80;75.50;;;;;;5060686;28;20455;-79
2022/06/16 00:36:51;;;;;;;2.97;2.67;;;23.80;75.20;;;;;;5065412;28;20812;-79
2022/06/16 00:39:20;;;;;;;2.97;2.77;;;23.80;76.90;;;;;;5059688;28;20456;-80
2022/06/16 00:41:48;;;;;;;2.90;2.53;;;23.80;77.80;;;;;;5066576;28;20451;-80
2022/06/16 00:44:37;;;;;;;3.07;2.87;;;23.80;76.50;;;;;;5060373;28;20459;-79
2022/06/16 00:47:07;;;;;;;3.63;2.93;;;23.70;76.30;;;;;;5088428;28;21009;-79
2022/06/16 00:49:37;;;;;;;3.17;2.87;;;23.80;79.00;;;;;;5062074;28;20504;-80
2022/06/16 00:52:11;;;;;;;3.10;2.37;;;23.70;76.10;;;;;;5064239;28;21025;-80
2022/06/16 00:54:45;;;;;;;2.70;2.50;;;23.70;76.30;;;;;;5064248;28;20475;-79
2022/06/16 00:57:17;;;;;;;3.43;3.13;;;23.60;75.80;;;;;;5062388;28;20438;-80
2022/06/16 00:59:46;;;;;;;2.70;2.50;;;23.60;76.30;;;;;;5057377;28;20733;-79
2022/06/16 01:02:22;;;;;;;2.87;2.40;;;23.60;77.70;;;;;;5063207;28;20474;-80
2022/06/16 01:04:52;;;;;;;2.90;2.70;;;23.60;76.90;;;;;;5063607;28;20477;-79
2022/06/16 01:07:25;;;;;;;3.03;2.67;;;23.50;77.70;;;;;;5060629;28;20542;-80
2022/06/16 01:09:55;;;;;;;3.10;2.27;;;23.50;76.00;;;;;;5065313;28;21034;-80
2022/06/16 01:15:43;;;;;;;3.30;3.00;;;23.50;75.40;;;;;;5056317;28;20478;-79
2022/06/16 01:18:20;;;;;;;3.23;3.03;;;23.50;75.40;;;;;;5064341;28;20476;-79
2022/06/16 01:20:54;;;;;;;3.00;2.80;;;23.50;75.40;;;;;;5062425;28;20458;-80
2022/06/16 01:24:08;;;;;;;3.17;2.87;;;23.40;76.40;;;;;;5062938;28;21032;-80
2022/06/16 01:27:03;;;;;;;2.90;2.70;;;23.40;74.90;;;;;;5077148;28;21101;-80
2022/06/16 01:29:38;;;;;;;3.07;2.77;;;23.30;79.30;;;;;;5063345;28;20465;-79
2022/06/16 01:32:12;;;;;;;2.63;2.43;;;23.30;76.20;;;;;;5058516;28;20454;-79
2022/06/16 01:34:48;;;;;;;2.97;2.67;;;23.30;77.80;;;;;;5060168;28;20469;-79
2022/06/16 01:37:22;;;;;;;2.63;2.43;;;23.30;76.10;;;;;;5061781;28;21161;-80
2022/06/16 01:40:01;;;;;;;2.73;2.53;;;23.20;76.50;;;;;;5059076;28;20458;-80
2022/06/16 01:42:37;;;;;;;2.93;2.63;;;23.20;76.70;;;;;;5063165;28;20446;-80
2022/06/16 01:45:15;;;;;;;3.20;2.90;;;23.20;77.30;;;;;;5057493;28;20471;-80
2022/06/16 01:47:49;;;;;;;2.20;2.10;;;23.20;75.10;;;;;;5058582;28;20494;-79
2022/06/16 01:50:22;;;;;;;3.60;2.33;;;23.10;75.10;;;;;;5057438;28;20454;-79
2022/06/16 01:52:55;;;;;;;3.30;1.80;;;23.10;75.10;;;;;;5058051;28;20851;-80
2022/06/16 01:55:29;;;;;;;2.73;2.13;;;23.10;73.80;;;;;;5063317;28;20473;-79
2022/06/16 01:58:02;;;;;;;2.40;2.00;;;23.10;70.80;;;;;;5062820;28;20457;-80
2022/06/16 02:00:33;;;;;;;2.03;1.93;;;23.00;68.80;;;;;;5063326;28;20451;-80
2022/06/16 02:03:05;;;;;;;2.43;2.33;;;23.10;70.80;;;;;;5094782;28;20460;-82
2022/06/16 02:05:41;;;;;;;3.33;2.30;;;23.00;69.00;;;;;;5062019;28;20530;-81
2022/06/16 02:08:13;;;;;;;2.57;2.37;;;23.00;71.90;;;;;;5061333;28;20477;-81
2022/06/16 02:10:45;;;;;;;2.53;2.20;;;23.00;73.20;;;;;;5061708;28;20988;-80
2022/06/16 02:13:19;;;;;;;2.70;2.50;;;23.00;71.20;;;;;;5065183;28;20464;-79
2022/06/16 02:15:54;;;;;;;2.37;2.27;;;23.00;70.10;;;;;;5060880;28;20847;-79
2022/06/16 02:18:24;;;;;;;3.33;2.30;;;23.00;70.80;;;;;;5061468;28;20441;-80
2022/06/16 02:20:58;;;;;;;4.40;4.03;;;23.00;70.40;;;;;;5064905;28;20457;-80
2022/06/16 02:23:27;;;;;;;2.47;2.27;;;22.90;69.70;;;;;;5064357;28;20453;-80
2022/06/16 02:25:57;;;;;;;2.70;2.50;;;22.90;72.50;;;;;;5064712;28;20641;-79
2022/06/16 02:28:27;;;;;;;2.90;2.70;;;22.90;71.80;;;;;;5062075;28;20526;-79
2022/06/16 02:31:12;;;;;;;2.80;2.40;;;22.90;73.70;;;;;;5063373;28;20950;-80
2022/06/16 02:33:54;;;;;;;3.17;2.83;;;22.90;72.90;;;;;;5061530;28;20519;-80
2022/06/16 02:36:34;;;;;;;7.83;2.83;;;22.90;72.30;;;;;;5057650;28;20461;-80
2022/06/16 02:39:15;;;;;;;2.90;2.60;;;22.80;73.40;;;;;;5065043;28;20461;-80
2022/06/16 02:41:52;;;;;;;3.10;2.80;;;22.80;72.10;;;;;;5061217;28;20465;-80
2022/06/16 02:44:30;;;;;;;3.53;2.63;;;22.80;75.80;;;;;;5062557;28;20468;-79
2022/06/16 02:47:05;;;;;;;2.80;2.60;;;22.80;74.70;;;;;;5058851;28;21260;-80
2022/06/16 02:49:45;;;;;;;3.40;3.10;;;22.80;76.80;;;;;;5059547;28;20515;-80
2022/06/16 02:52:20;;;;;;;3.33;2.90;;;22.70;74.30;;;;;;5055902;28;20798;-81
2022/06/16 02:54:55;;;;;;;3.10;2.67;;;22.70;75.10;;;;;;5059890;28;20478;-79
2022/06/16 02:57:31;;;;;;;2.53;2.33;;;22.70;74.00;;;;;;5060228;28;20446;-80
2022/06/16 03:00:03;;;;;;;3.83;3.53;;;22.60;75.00;;;;;;5063369;28;20457;-79
2022/06/16 03:02:37;;;;;;;3.43;2.50;;;22.60;74.60;;;;;;5061206;28;20458;-80
2022/06/16 03:05:07;;;;;;;2.97;2.73;;;22.60;73.60;;;;;;5057218;28;20489;-80
2022/06/16 03:07:37;;;;;;;3.17;2.97;;;22.60;74.80;;;;;;5056042;28;20456;-80
2022/06/16 03:10:06;;;;;;;5.67;3.40;;;22.50;78.50;;;;;;5058647;28;20539;-81
2022/06/16 03:12:34;;;;;;;8.53;7.73;;;22.50;74.10;;;;;;5061273;28;20455;-80
2022/06/16 03:15:03;;;;;;;5.47;4.23;;;22.50;76.40;;;;;;5063318;28;20487;-80
2022/06/16 03:17:32;;;;;;;5.53;5.13;;;22.50;76.80;;;;;;5060557;28;21064;-80
2022/06/16 03:20:01;;;;;;;3.57;3.33;;;22.50;78.60;;;;;;5062479;28;20442;-80
2022/06/16 03:22:29;;;;;;;3.13;2.80;;;22.50;77.20;;;;;;5062430;28;20456;-80
2022/06/16 03:24:57;;;;;;;3.50;3.20;;;22.50;77.80;;;;;;5060396;28;20477;-80
2022/06/16 03:27:25;;;;;;;3.30;3.10;;;22.40;77.90;;;;;;5052563;28;21055;-80
2022/06/16 03:29:53;;;;;;;3.87;3.57;;;22.40;76.80;;;;;;5062709;28;20486;-80
2022/06/16 03:32:21;;;;;;;3.83;3.53;;;22.40;78.20;;;;;;5059383;28;20485;-80
2022/06/16 03:34:51;;;;;;;3.93;3.07;;;22.30;78.00;;;;;;5059446;28;20474;-79
2022/06/16 03:37:19;;;;;;;3.93;3.40;;;22.40;78.70;;;;;;5062386;28;20458;-79
2022/06/16 03:39:47;;;;;;;3.10;2.87;;;22.30;78.70;;;;;;5059735;28;21360;-81
2022/06/16 03:42:15;;;;;;;2.90;2.67;;;22.40;78.80;;;;;;5063400;28;20481;-80
2022/06/16 03:44:44;;;;;;;2.70;2.50;;;22.30;77.20;;;;;;5054206;28;20496;-79
2022/06/16 03:47:12;;;;;;;2.83;2.60;;;22.30;78.20;;;;;;5054111;28;20892;-79
2022/06/16 03:49:40;;;;;;;2.67;2.47;;;22.40;78.60;;;;;;5060056;28;20471;-80
2022/06/16 03:52:10;;;;;;;2.53;2.10;;;22.40;80.90;;;;;;5057262;28;21203;-79
2022/06/16 03:54:38;;;;;;;3.67;2.30;;;22.40;81.50;;;;;;5060815;28;20475;-79
2022/06/16 03:57:07;;;;;;;4.17;2.90;;;22.40;80.60;;;;;;5060386;28;21040;-79
2022/06/16 03:59:35;;;;;;;2.80;2.50;;;22.40;79.20;;;;;;5056422;28;20435;-79
2022/06/16 04:02:03;;;;;;;3.07;2.80;;;22.40;78.80;;;;;;5060325;28;20456;-79
2022/06/16 04:04:32;;;;;;;2.90;2.70;;;22.40;76.20;;;;;;5059953;28;20474;-79
2022/06/16 04:07:00;;;;;;;2.67;2.40;;;22.50;76.30;;;;;;5062566;28;20462;-80
2022/06/16 04:09:30;;;;;;;2.60;2.40;;;22.50;77.50;;;;;;5062028;28;20478;-80
2022/06/16 04:11:58;;;;;;;2.60;2.50;;;22.50;77.60;;;;;;5061500;28;20463;-80
2022/06/16 04:14:26;;;;;;;2.10;2.00;;;22.60;80.10;;;;;;5063913;28;20462;-80
2022/06/16 04:16:56;;;;;;;2.80;2.17;;;22.50;83.90;;;;;;5064242;28;20565;-80
2022/06/16 04:19:24;;;;;;;3.00;2.73;;;22.60;82.70;;;;;;5065510;28;20456;-80
2022/06/16 04:21:53;;;;;;;2.80;2.60;;;22.60;85.10;;;;;;5065168;28;20463;-80
2022/06/16 04:24:23;;;;;;;2.13;2.03;;;22.50;80.10;;;;;;5064779;28;20463;-79
2022/06/16 04:26:54;;;;;;;2.60;2.40;;;22.60;77.90;;;;;;5064462;28;20458;-80
2022/06/16 04:29:23;;;;;;;2.70;2.00;;;22.60;77.90;;;;;;5063702;28;20450;-80
2022/06/16 04:31:51;;;;;;;2.33;2.20;;;22.60;77.80;;;;;;5062494;28;20473;-80
2022/06/16 04:34:20;;;;;;;2.63;2.27;;;22.70;94.40;;;;;;5062776;28;20446;-80
2022/06/16 04:36:48;;;;;;;3.47;2.70;;;22.70;81.60;;;;;;5065944;28;20458;-79
2022/06/16 04:39:17;;;;;;;2.60;2.40;;;22.70;83.50;;;;;;5066361;28;20457;-81
2022/06/16 04:41:46;;;;;;;2.30;2.20;;;22.70;81.30;;;;;;5065333;28;20954;-80
2022/06/16 04:44:15;;;;;;;3.13;2.93;;;22.70;81.80;;;;;;5068460;28;20466;-79
2022/06/16 04:46:43;;;;;;;2.63;2.43;;;22.70;83.60;;;;;;5093791;27;20999;-79
2022/06/16 04:49:12;;;;;;;2.80;2.10;;;22.70;86.40;;;;;;5062545;28;20478;-79
2022/06/16 04:51:41;;;;;;;4.10;2.50;;;22.70;82.90;;;;;;5063659;28;20496;-79
2022/06/16 04:54:09;;;;;;;3.47;2.50;;;22.70;84.10;;;;;;5064949;28;20561;-79
2022/06/16 04:56:37;;;;;;;4.20;2.57;;;22.70;85.70;;;;;;5062133;28;20471;-80
2022/06/16 04:59:05;;;;;;;2.57;2.37;;;22.80;81.20;;;;;;5063762;28;20926;-80
2022/06/16 05:01:35;;;;;;;3.33;2.57;;;22.80;82.40;;;;;;5058548;28;20449;-79
2022/06/16 05:04:03;;;;;;;2.40;2.20;;;22.80;84.20;;;;;;5064166;28;20537;-79
2022/06/16 05:06:31;;;;;;;2.40;2.20;;;22.80;85.90;;;;;;5061824;28;20466;-79
2022/06/16 05:08:59;;;;;;;2.20;2.00;;;22.90;88.80;;;;;;5062202;28;20461;-79
2022/06/16 05:11:28;;;;;;;2.20;2.07;;;22.90;86.20;;;;;;5067040;28;20458;-79
2022/06/16 05:13:57;;;;;;;3.17;2.37;;;22.90;88.20;;;;;;5053416;28;20978;-79
2022/06/16 05:16:26;;;;;;;3.13;2.00;;;22.90;87.30;;;;;;5060979;28;21111;-79
2022/06/16 05:18:56;;;;;;;3.30;2.30;;;23.00;90.20;;;;;;5063029;28;20621;-80
2022/06/16 05:21:24;;;;;;;2.40;2.30;;;23.00;89.50;;;;;;5067254;28;20454;-80
2022/06/16 05:23:52;;;;;;;2.73;2.53;;;23.00;90.40;;;;;;5065358;28;20455;-79
2022/06/16 05:26:20;;;;;;;3.10;2.40;;;23.00;89.20;;;;;;5064318;28;20490;-80
2022/06/16 05:28:48;;;;;;;1.97;1.80;;;23.00;88.70;;;;;;5064716;28;20462;-80
2022/06/16 05:31:17;;;;;;;4.40;2.10;;;23.00;86.70;;;;;;5061939;28;20493;-79
2022/06/16 05:33:45;;;;;;;2.13;2.03;;;23.00;86.20;;;;;;5063927;28;20466;-80
2022/06/16 05:36:14;;;;;;;3.70;2.20;;;23.00;85.40;;;;;;5063758;28;21561;-79
2022/06/16 05:38:42;;;;;;;2.47;2.33;;;23.00;85.50;;;;;;5064925;28;20457;-79
2022/06/16 05:41:13;;;;;;;2.70;2.50;;;23.00;88.40;;;;;;5061901;28;21333;-79
2022/06/16 05:43:42;;;;;;;3.33;2.40;;;23.10;85.10;;;;;;5062218;28;20463;-73
2022/06/16 05:46:15;;;;;;;2.30;2.20;;;23.00;85.00;;;;;;5078286;28;20479;-75
2022/06/16 05:48:44;;;;;;;4.83;3.40;;;23.10;86.70;;;;;;5061795;28;20827;-74
2022/06/16 05:51:15;;;;;;;2.13;2.03;;;23.10;86.10;;;;;;5064877;28;20479;-75
2022/06/16 05:53:44;;;;;;;2.40;2.20;;;23.10;83.50;;;;;;5063146;28;20451;-75
2022/06/16 05:56:13;;;;;;;2.63;2.43;;;23.10;83.80;;;;;;5059985;28;20467;-74
2022/06/16 05:58:41;;;;;;;3.40;3.10;;;23.10;82.30;;;;;;5059541;28;20519;-76
2022/06/16 06:01:11;;;;;;;2.40;2.20;;;23.10;85.40;;;;;;5061547;28;20450;-74
2022/06/16 06:03:39;;;;;;;5.00;2.50;;;23.10;83.80;;;;;;5061617;28;20506;-75
2022/06/16 06:06:07;;;;;;;2.03;1.93;;;23.10;84.40;;;;;;5064106;28;20485;-74
2022/06/16 06:17:00;;;;;;;2.10;2.00;;;23.30;87.70;;;;;;5057030;28;20462;-74
2022/06/16 06:19:28;;;;;;;2.40;2.20;;;23.30;83.30;;;;;;5059825;28;20455;-75
2022/06/16 06:21:59;;;;;;;2.40;2.20;;;23.30;84.10;;;;;;5059321;28;20477;-77
2022/06/16 06:24:32;;;;;;;2.40;2.30;;;23.30;82.90;;;;;;5051057;28;20478;-75
2022/06/16 06:27:02;;;;;;;2.27;2.17;;;23.40;82.20;;;;;;5055628;28;20544;-80
2022/06/16 06:29:31;;;;;;;3.07;2.13;;;23.40;78.60;;;;;;5059203;28;20461;-82
2022/06/16 06:31:59;;;;;;;2.30;2.10;;;23.40;81.90;;;;;;5063825;28;21085;-79
2022/06/16 06:34:27;;;;;;;3.10;2.90;;;23.40;85.30;;;;;;5061178;28;20864;-78
2022/06/16 06:36:56;;;;;;;3.20;2.40;;;23.50;86.00;;;;;;5065758;28;20507;-79
2022/06/16 06:39:24;;;;;;;2.20;2.00;;;23.60;85.50;;;;;;5059044;28;20661;-79
2022/06/16 06:41:54;;;;;;;3.17;2.20;;;23.60;88.00;;;;;;5064753;28;21020;-82
2022/06/16 06:44:22;;;;;;;3.33;2.83;;;23.70;97.80;;;;;;5066556;28;20512;-79
2022/06/16 06:46:50;;;;;;;2.80;2.37;;;23.80;90.70;;;;;;5065847;28;20492;-81
2022/06/16 06:49:19;;;;;;;2.37;2.17;;;23.80;91.20;;;;;;5061601;28;20478;-78
2022/06/16 06:51:48;;;;;;;2.50;2.30;;;23.90;92.20;;;;;;5064605;28;21073;-81
2022/06/16 06:54:17;;;;;;;3.20;3.00;;;24.00;92.40;;;;;;5073718;28;20465;-79
2022/06/16 06:56:46;;;;;;;4.03;2.40;;;24.10;92.40;;;;;;5070115;28;20467;-79
2022/06/16 06:59:19;;;;;;;2.50;2.30;;;24.10;92.50;;;;;;5062398;28;20531;-78
2022/06/16 07:01:48;;;;;;;2.50;2.30;;;24.20;97.70;;;;;;5059410;28;20458;-80
2022/06/16 07:04:17;;;;;;;2.10;1.90;;;24.20;94.00;;;;;;5065165;28;20529;-79
2022/06/16 07:06:46;;;;;;;2.57;2.37;;;24.30;93.80;;;;;;5061915;28;20512;-78
2022/06/16 07:09:17;;;;;;;2.60;1.90;;;24.30;94.00;;;;;;5066368;28;20951;-78
2022/06/16 07:11:45;;;;;;;2.07;1.87;;;24.30;94.10;;;;;;5062993;28;20467;-79
2022/06/16 07:14:13;;;;;;;2.10;1.90;;;24.40;95.20;;;;;;5063960;28;20462;-82
2022/06/16 07:16:45;;;;;;;2.23;2.13;;;24.40;95.30;;;;;;5062499;28;20459;-79
2022/06/16 07:19:17;;;;;;;2.97;2.73;;;24.50;97.40;;;;;;5064591;28;21015;-80
2022/06/16 07:21:45;;;;;;;2.87;2.67;;;24.60;95.80;;;;;;5068604;28;20449;-79
2022/06/16 07:24:14;;;;;;;4.83;2.20;;;24.60;97.20;;;;;;5065872;28;21014;-78
2022/06/16 07:26:42;;;;;;;2.50;1.83;;;24.70;96.70;;;;;;5039776;28;20468;-78
2022/06/16 07:29:10;;;;;;;2.70;2.20;;;25.00;99.90;;;;;;5042041;28;20456;-79
2022/06/16 07:31:39;;;;;;;4.77;2.47;;;24.70;97.00;;;;;;5044611;28;20533;-84
2022/06/16 07:34:08;;;;;;;3.73;2.00;;;24.80;98.30;;;;;;5042171;28;21002;-80
2022/06/16 07:36:36;;;;;;;2.80;2.60;;;24.80;99.00;;;;;;5038993;28;21197;-82
2022/06/16 07:39:06;;;;;;;6.97;3.10;;;24.90;98.80;;;;;;5045406;28;20482;-81
2022/06/16 07:41:35;;;;;;;2.80;1.80;;;24.90;98.80;;;;;;5040317;28;20823;-81
2022/06/16 07:44:05;;;;;;;3.03;2.33;;;25.00;99.90;;;;;;5046541;28;20830;-83
2022/06/16 07:46:35;;;;;;;2.40;2.03;;;25.00;99.00;;;;;;5038856;28;21063;-74
2022/06/16 07:49:04;;;;;;;2.33;1.90;;;25.00;99.30;;;;;;5050038;28;20471;-74
2022/06/16 07:51:35;;;;;;;4.70;2.50;;;25.00;99.40;;;;;;5039952;28;20467;-75
2022/06/16 07:54:10;;;;;;;4.13;2.63;;;25.00;99.90;;;;;;5043615;28;20459;-74
2022/06/16 07:56:58;;;;;;;3.10;2.60;;;25.00;99.90;;;;;;5043326;28;20521;-75
2022/06/16 07:59:27;;;;;;;3.17;2.97;;;25.10;99.90;;;;;;5065256;28;20458;-74
2022/06/16 08:01:55;;;;;;;3.87;3.57;;;25.20;99.90;;;;;;5043533;28;20461;-74
2022/06/16 08:04:23;;;;;;;3.33;3.07;;;25.20;99.90;;;;;;5044693;28;20547;-74
2022/06/16 08:06:53;;;;;;;2.70;2.33;;;25.20;99.90;;;;;;5046190;28;20451;-75
2022/06/16 08:09:21;;;;;;;2.93;2.73;;;25.30;99.90;;;;;;5046594;28;20906;-74
2022/06/16 08:12:06;;;;;;;3.60;2.20;;;25.30;99.90;;;;;;5045214;28;20479;-74
2022/06/16 08:14:38;;;;;;;2.90;2.30;;;25.40;99.90;;;;;;5048136;28;20475;-74
2022/06/16 08:17:10;;;;;;;3.33;2.40;;;25.40;99.90;;;;;;5048289;28;20508;-75
2022/06/16 08:19:39;;;;;;;3.47;2.53;;;25.40;99.90;;;;;;5044500;28;20502;-75
2022/06/16 08:22:09;;;;;;;3.43;3.17;;;25.50;99.90;;;;;;5046271;28;20458;-75
2022/06/16 08:24:38;;;;;;;5.00;3.40;;;25.50;99.90;;;;;;5048349;28;20467;-74
2022/06/16 08:27:07;;;;;;;3.57;2.43;;;25.50;99.90;;;;;;5042397;28;21603;-74
2022/06/16 08:29:37;;;;;;;4.90;2.63;;;25.60;99.90;;;;;;5044363;28;20459;-75
2022/06/16 08:32:05;;;;;;;3.93;3.60;;;25.50;99.90;;;;;;5046416;28;20474;-75
2022/06/16 08:34:34;;;;;;;4.70;3.70;;;25.50;99.90;;;;;;5047819;28;20494;-75
2022/06/16 08:37:02;;;;;;;3.43;3.23;;;25.60;99.90;;;;;;5048328;28;20458;-76
2022/06/16 08:39:32;;;;;;;4.43;3.07;;;25.60;99.90;;;;;;5046382;28;20455;-74
2022/06/16 08:42:09;;;;;;;3.50;3.20;;;25.60;99.90;;;;;;5047661;28;20459;-75
2022/06/16 08:44:42;;;;;;;3.23;3.00;;;25.60;99.90;;;;;;5043489;28;20566;-74
2022/06/16 08:47:18;;;;;;;3.40;3.10;;;25.60;99.90;;;;;;5040006;28;20504;-75
2022/06/16 08:49:54;;;;;;;3.40;3.10;;;25.70;99.90;;;;;;5042816;28;20454;-74
2022/06/16 08:52:28;;;;;;;3.40;3.10;;;25.70;99.90;;;;;;5041528;28;20467;-74
2022/06/16 08:55:08;;;;;;;3.50;3.20;;;25.70;99.90;;;;;;5042566;28;20555;-75
2022/06/16 08:57:46;;;;;;;3.67;2.90;;;25.70;99.90;;;;;;5045740;28;21128;-75
2022/06/16 09:00:19;;;;;;;3.17;2.97;;;25.80;99.90;;;;;;5042776;28;20454;-76
2022/06/16 09:02:54;;;;;;;3.40;2.60;;;25.80;99.90;;;;;;5046447;28;20450;-76
2022/06/16 09:05:37;;;;;;;2.80;2.60;;;25.90;99.90;;;;;;5048427;28;20475;-74
2022/06/16 09:08:17;;;;;;;2.20;2.10;;;25.90;99.90;;;;;;5047757;28;20456;-75
2022/06/16 09:10:56;;;;;;;2.60;2.40;;;26.00;99.90;;;;;;5036706;28;20510;-75
2022/06/16 09:13:47;;;;;;;2.80;2.33;;;26.00;99.90;;;;;;5043854;28;20565;-74
2022/06/16 09:16:29;;;;;;;4.60;2.63;;;26.00;99.90;;;;;;5040011;28;20475;-74
2022/06/16 09:19:12;;;;;;;6.10;2.43;;;26.10;99.90;;;;;;5047550;28;20467;-74
2022/06/16 09:21:50;;;;;;;3.90;2.40;;;26.10;99.90;;;;;;5041624;28;20452;-74
2022/06/16 09:24:37;;;;;;;3.33;3.13;;;26.20;99.90;;;;;;5039655;28;20492;-74
2022/06/16 09:27:15;;;;;;;3.97;3.00;;;26.20;99.90;;;;;;5047755;28;20516;-74
2022/06/16 09:29:46;;;;;;;2.53;2.27;;;26.30;99.90;;;;;;5049680;28;20501;-75
2022/06/16 09:32:21;;;;;;;2.83;2.67;;;26.30;99.90;;;;;;5046242;28;20490;-75
2022/06/16 09:34:54;;;;;;;3.37;2.77;;;26.30;99.90;;;;;;5044003;28;20570;-75
2022/06/16 09:37:28;;;;;;;2.40;2.30;;;26.30;99.90;;;;;;5047830;28;20467;-75
2022/06/16 09:40:02;;;;;;;3.23;2.67;;;26.40;99.90;;;;;;5046471;28;20517;-74
2022/06/16 09:42:38;;;;;;;4.10;3.00;;;26.40;99.90;;;;;;5045611;28;20455;-74
2022/06/16 09:45:14;;;;;;;2.63;2.50;;;26.40;99.90;;;;;;5043374;28;20490;-74
2022/06/16 09:47:48;;;;;;;2.67;2.20;;;26.50;99.90;;;;;;5037056;28;20465;-74
2022/06/16 09:50:27;;;;;;;2.90;2.70;;;26.50;99.90;;;;;;5047014;28;20463;-74
2022/06/16 09:53:00;;;;;;;3.30;2.70;;;26.60;99.90;;;;;;5046539;28;20513;-74
2022/06/16 09:55:35;;;;;;;2.90;2.70;;;26.60;99.90;;;;;;5035637;28;21010;-75
2022/06/16 09:58:16;;;;;;;2.30;2.20;;;26.60;99.90;;;;;;5038864;28;21089;-75
2022/06/16 10:00:44;;;;;;;2.63;2.40;;;26.60;99.90;;;;;;5039113;28;20532;-75
2022/06/16 10:03:24;;;;;;;2.27;2.17;;;26.60;99.90;;;;;;5038150;28;20955;-74
2022/06/16 10:06:14;;;;;;;2.90;2.70;;;26.60;99.90;;;;;;5041030;28;20471;-74
2022/06/16 10:08:51;;;;;;;2.57;2.37;;;26.60;99.90;;;;;;5046795;28;20454;-74
2022/06/16 10:11:31;;;;;;;2.30;2.20;;;26.70;99.90;;;;;;5041238;28;20512;-75
2022/06/16 10:14:12;;;;;;;2.30;2.10;;;26.70;99.90;;;;;;5046121;28;20480;-74
2022/06/16 10:16:50;;;;;;;2.53;2.33;;;26.70;99.90;;;;;;5044594;28;20469;-74
2022/06/16 10:19:20;;;;;;;3.47;2.20;;;26.70;99.90;;;;;;5040895;28;20515;-74
2022/06/16 10:21:48;;;;;;;6.20;3.30;;;26.70;99.90;;;;;;5047173;28;20517;-74
2022/06/16 10:24:19;;;;;;;2.63;2.43;;;26.70;99.90;;;;;;5035575;28;20460;-74
2022/06/16 10:26:47;;;;;;;2.33;2.23;;;26.80;99.90;;;;;;5038305;28;20955;-74
2022/06/16 10:29:24;;;;;;;3.60;3.30;;;26.90;99.90;;;;;;5045051;28;20447;-75
2022/06/16 10:31:55;;;;;;;4.00;2.13;;;26.90;99.90;;;;;;5045075;28;20966;-75
2022/06/16 10:34:35;;;;;;;2.13;2.00;;;26.90;99.90;;;;;;5039862;28;20533;-74
2022/06/16 10:37:10;;;;;;;3.83;3.40;;;26.90;99.90;;;;;;5042023;28;20462;-74
2022/06/16 10:39:44;;;;;;;2.63;2.30;;;27.00;99.90;;;;;;5041936;28;20451;-74
2022/06/16 10:42:21;;;;;;;3.20;2.50;;;27.00;99.90;;;;;;5036930;28;20471;-76
2022/06/16 10:44:55;;;;;;;2.70;2.50;;;27.00;99.90;;;;;;5047375;28;20536;-74
2022/06/16 10:47:32;;;;;;;2.20;2.00;;;27.00;99.90;;;;;;5042626;28;20530;-74
2022/06/16 10:50:02;;;;;;;3.00;2.80;;;27.10;99.90;;;;;;5043463;28;20454;-73
2022/06/16 10:52:33;;;;;;;3.33;2.50;;;27.10;99.90;;;;;;5045073;28;20483;-76
2022/06/16 10:55:18;;;;;;;2.47;2.33;;;27.10;99.90;;;;;;5041819;28;20505;-74
2022/06/16 10:57:49;;;;;;;3.20;2.90;;;27.10;99.90;;;;;;5044849;28;20513;-75
2022/06/16 11:00:22;;;;;;;4.70;4.30;;;27.10;99.90;;;;;;5040048;28;20497;-80
2022/06/16 11:03:15;;;;;;;3.58;2.80;;;27.10;99.90;;;;;;5037369;28;20535;-80
2022/06/16 11:06:02;;;;;;;5.20;2.83;;;27.30;99.90;;;;;;5044615;28;20228;-80
2022/06/16 11:08:36;;;;;;;2.50;2.30;;;27.40;99.90;;;;;;5045557;28;20470;-80
2022/06/16 11:11:20;;;;;;;3.30;2.80;;;27.40;99.90;;;;;;5041601;28;20447;-80
2022/06/16 11:13:56;;;;;;;2.87;2.33;;;27.50;99.90;;;;;;5043318;28;20520;-80
2022/06/16 11:16:37;;;;;;;3.60;2.73;;;27.50;99.90;;;;;;5038831;28;21098;-81
2022/06/16 11:19:10;;;;;;;4.50;2.47;;;27.50;99.90;;;;;;5041255;28;20448;-80
2022/06/16 11:21:44;;;;;;;4.43;3.93;;;27.50;99.90;;;;;;5043721;28;20463;-81
2022/06/16 11:24:26;;;;;;;3.13;2.80;;;27.60;99.90;;;;;;5038538;28;20478;-81
2022/06/16 11:27:06;;;;;;;3.20;3.00;;;27.60;99.90;;;;;;5045587;28;20455;-80
2022/06/16 11:29:36;;;;;;;4.93;2.77;;;27.60;99.90;;;;;;5050630;28;20455;-80
2022/06/16 11:32:14;;;;;;;2.70;2.50;;;27.70;99.90;;;;;;5049492;28;20855;-80
2022/06/16 11:34:44;;;;;;;2.60;2.50;;;27.70;99.90;;;;;;5039348;28;21026;-81
2022/06/16 11:37:42;;;;;;;2.60;2.40;;;27.80;99.90;;;;;;5046712;28;21022;-80
2022/06/16 11:40:21;;;;;;;2.63;2.20;;;27.80;99.90;;;;;;5041568;28;20582;-81
2022/06/16 11:43:16;;;;;;;4.90;2.70;;;27.80;99.90;;;;;;5048512;28;20529;-80
2022/06/16 11:45:48;;;;;;;3.63;2.53;;;27.90;99.90;;;;;;5045752;28;20498;-80
2022/06/16 11:48:24;;;;;;;2.97;2.63;;;27.90;99.90;;;;;;5046740;28;20467;-80
2022/06/16 11:51:03;;;;;;;2.70;2.50;;;28.00;99.90;;;;;;5050003;28;20901;-81
2022/06/16 11:53:48;;;;;;;2.80;2.60;;;28.00;99.90;;;;;;5045833;28;21009;-80
2022/06/16 11:56:27;;;;;;;4.20;2.63;;;28.10;99.90;;;;;;5047285;28;20474;-80
2022/06/16 11:59:11;;;;;;;3.97;3.57;;;28.10;99.90;;;;;;5047360;28;20466;-81
2022/06/16 12:01:45;;;;;;;2.60;2.50;;;28.10;99.90;;;;;;5049067;28;20455;-81
2022/06/16 12:04:55;;;;;;;3.37;2.93;;;28.20;99.90;;;;;;5043304;28;20459;-81
2022/06/16 12:07:42;;;;;;;2.40;2.30;;;28.20;99.90;;;;;;5047571;28;20451;-80
2022/06/16 12:10:18;;;;;;;2.37;2.27;;;28.20;99.90;;;;;;5044812;28;20458;-81
2022/06/16 12:12:57;;;;;;;2.43;2.23;;;28.20;99.90;;;;;;5047113;28;20504;-80
2022/06/16 12:15:34;;;;;;;5.90;3.03;;;28.30;99.90;;;;;;5040991;28;20532;-80
2022/06/16 12:18:20;;;;;;;3.20;2.90;;;28.20;99.90;;;;;;5049579;28;20513;-81
2022/06/16 12:21:03;;;;;;;3.17;2.57;;;28.20;99.90;;;;;;5048492;28;20501;-80
2022/06/16 12:23:40;;;;;;;2.40;2.20;;;28.30;99.90;;;;;;5050008;28;20447;-81
2022/06/16 12:26:16;;;;;;;3.30;2.60;;;28.30;99.90;;;;;;5036721;28;20479;-79
2022/06/16 12:28:49;;;;;;;2.90;2.70;;;28.40;99.90;;;;;;5046661;28;20453;-80
2022/06/16 12:31:21;;;;;;;3.03;2.70;;;28.40;99.90;;;;;;5048925;28;20455;-80
2022/06/16 12:34:03;;;;;;;3.47;2.40;;;28.40;99.90;;;;;;5049487;28;20463;-80
2022/06/16 12:36:37;;;;;;;2.63;2.43;;;28.40;99.90;;;;;;5044643;28;20475;-80
2022/06/16 12:39:07;;;;;;;3.33;2.43;;;28.50;99.90;;;;;;5044676;28;20496;-78
2022/06/16 12:41:41;;;;;;;2.50;2.40;;;28.50;99.90;;;;;;5047057;28;20467;-81
2022/06/16 12:44:14;;;;;;;2.60;2.40;;;28.50;99.90;;;;;;5037282;28;20451;-80
2022/06/16 12:46:46;;;;;;;3.20;2.90;;;28.50;99.90;;;;;;5053765;28;21018;-80
2022/06/16 12:49:21;;;;;;;2.07;1.90;;;28.50;99.90;;;;;;5048365;28;20983;-80
2022/06/16 12:52:02;;;;;;;2.20;2.10;;;28.50;99.90;;;;;;5048553;28;20439;-80
2022/06/16 12:54:37;;;;;;;3.20;2.40;;;28.50;99.90;;;;;;5063240;28;20466;-80
2022/06/16 12:57:09;;;;;;;2.60;2.40;;;28.60;99.90;;;;;;5044942;28;20462;-81
2022/06/16 12:59:43;;;;;;;2.60;2.40;;;28.60;99.90;;;;;;5046844;28;20486;-80
2022/06/16 13:02:16;;;;;;;2.80;2.40;;;28.60;99.90;;;;;;5039574;28;20533;-80
2022/06/16 13:04:45;;;;;;;2.90;2.60;;;28.60;99.90;;;;;;5043358;28;20482;-80
2022/06/16 13:07:20;;;;;;;14.63;2.93;;;28.60;99.90;;;;;;5049853;28;20633;-80
2022/06/16 13:09:48;;;;;;;3.20;2.90;;;28.60;99.90;;;;;;5049366;28;20468;-81
2022/06/16 13:12:21;;;;;;;3.20;2.10;;;28.70;99.90;;;;;;5050319;28;20536;-81
2022/06/16 13:14:53;;;;;;;2.20;2.10;;;28.70;99.90;;;;;;5046275;28;20511;-81
2022/06/16 13:17:27;;;;;;;3.23;1.80;;;28.70;99.90;;;;;;5048074;28;20452;-81
2022/06/16 13:19:59;;;;;;;3.57;2.20;;;28.70;99.90;;;;;;5051819;28;20517;-81
2022/06/16 13:22:34;;;;;;;1.77;1.67;;;28.70;99.90;;;;;;5051955;28;20680;-81
2022/06/16 13:25:06;;;;;;;3.20;1.83;;;28.70;99.90;;;;;;5049650;28;20562;-80
2022/06/16 13:27:42;;;;;;;1.77;1.67;;;28.70;99.90;;;;;;5047660;28;20436;-82
2022/06/16 13:30:22;;;;;;;2.30;1.83;;;28.80;99.90;;;;;;5044355;28;21118;-81